createdAt,value
2022-09-26T00:07:34.805Z,2.78
2022-09-26T00:11:32.957Z,2.50
2022-09-26T00:14:47.239Z,2.47
2022-09-26T00:17:51.360Z,2.45
2022-09-26T00:20:54.804Z,2.25
2022-09-26T00:24:29.797Z,2.47
2022-09-26T00:27:48.194Z,2.70
2022-09-26T00:31:11.792Z,2.30
2022-09-26T00:34:50.003Z,2.50
2022-09-26T00:38:17.774Z,2.70
2022-09-26T00:41:26.737Z,2.50
2022-09-26T00:49:10.642Z,2.40
2022-09-26T00:52:51.956Z,2.38
2022-09-26T00:56:34.401Z,2.45
2022-09-26T00:59:53.738Z,2.15
2022-09-26T01:03:18.147Z,2.33
2022-09-26T01:06:50.076Z,2.40
2022-09-26T01:10:17.867Z,2.70
2022-09-26T01:13:34.782Z,2.47
2022-09-26T01:18:11.256Z,2.50
2022-09-26T01:56:02.898Z,2.22
2022-09-26T01:59:47.850Z,2.40
2022-09-26T02:03:51.335Z,2.10
2022-09-26T02:08:35.239Z,2.40
2022-09-26T02:20:35.363Z,1.67
2022-09-26T03:25:06.898Z,1.65
2022-09-26T03:28:27.070Z,1.92
2022-09-26T03:32:55.936Z,1.85
2022-09-26T03:50:43.681Z,1.60
2022-09-26T04:06:59.461Z,1.60
2022-09-26T04:33:27.492Z,1.55
2022-09-26T04:41:59.839Z,1.67
2022-09-26T04:50:34.751Z,1.80
2022-09-26T05:03:28.560Z,1.65
2022-09-26T05:11:31.487Z,1.80
2022-09-26T05:20:15.478Z,1.73
2022-09-26T05:34:31.576Z,1.65
2022-09-26T05:44:35.396Z,1.77
2022-09-26T05:57:15.645Z,1.63
2022-09-26T06:20:00.269Z,1.23
2022-09-26T06:43:15.302Z,1.48
2022-09-26T06:51:59.946Z,1.42
2022-09-26T06:56:59.953Z,1.55
2022-09-26T07:06:18.839Z,1.50
2022-09-26T07:15:03.539Z,1.70
2022-09-26T07:22:59.737Z,1.63
2022-09-26T07:26:28.054Z,1.52
2022-09-26T07:30:49.310Z,1.80
2022-09-26T07:34:59.454Z,1.52
2022-09-26T07:43:18.067Z,1.13
2022-09-26T07:46:58.500Z,1.40
2022-09-26T07:50:23.421Z,1.38
2022-09-26T07:53:49.314Z,1.58
2022-09-26T08:03:07.856Z,1.65
2022-09-26T08:07:51.674Z,1.45
2022-09-26T08:16:19.801Z,1.52
2022-09-26T08:20:44.104Z,1.40
2022-09-26T08:23:54.575Z,1.50
2022-09-26T08:27:09.364Z,1.63
2022-09-26T08:31:44.253Z,1.65
2022-09-26T08:35:16.243Z,1.80
2022-09-26T08:38:51.684Z,1.58
2022-09-26T08:43:00.042Z,1.30
2022-09-26T08:47:33.481Z,1.48
2022-09-26T08:56:19.795Z,1.67
2022-09-26T09:14:28.087Z,1.65
2022-09-26T09:18:34.910Z,1.55
2022-09-26T09:29:26.125Z,1.52
2022-09-26T09:34:03.218Z,1.35
2022-09-26T09:44:35.835Z,1.30
2022-09-26T09:51:57.731Z,1.17
2022-09-26T09:55:42.956Z,1.30
2022-09-26T09:58:51.546Z,1.35
2022-09-26T10:02:23.821Z,1.75
2022-09-26T10:06:46.189Z,1.40
2022-09-26T10:09:58.853Z,1.27
2022-09-26T10:13:34.980Z,1.42
2022-09-26T10:17:27.573Z,1.35
2022-09-26T10:20:59.308Z,1.80
2022-09-26T10:23:58.925Z,1.60
2022-09-26T10:27:48.114Z,1.52
2022-09-26T10:31:03.557Z,1.48
2022-09-26T10:34:39.019Z,1.55
2022-09-26T10:37:58.008Z,1.60
2022-09-26T10:41:38.069Z,1.50
2022-09-26T10:44:46.083Z,1.27
2022-09-26T10:47:54.540Z,1.70
2022-09-26T10:51:27.586Z,1.50
2022-09-26T10:55:21.867Z,1.80
2022-09-26T10:58:45.348Z,1.38
2022-09-26T11:02:09.264Z,1.55
2022-09-26T11:05:48.335Z,1.77
2022-09-26T11:17:51.827Z,1.27
2022-09-26T11:21:29.307Z,1.80
2022-09-26T11:25:19.468Z,1.30
2022-09-26T11:28:58.546Z,1.63
2022-09-26T11:33:02.692Z,1.33
2022-09-26T11:37:24.347Z,1.20
2022-09-26T11:41:35.961Z,1.33
2022-09-26T11:45:26.914Z,1.30
2022-09-26T11:49:23.360Z,1.38
2022-09-26T11:56:53.350Z,1.42
2022-09-26T12:00:18.579Z,1.60
2022-09-26T12:04:22.168Z,1.30
2022-09-26T12:07:51.404Z,1.40
2022-09-26T12:19:18.162Z,1.20
2022-09-26T12:22:30.151Z,1.38
2022-09-26T12:25:56.346Z,1.70
2022-09-26T12:29:11.709Z,1.35
2022-09-26T12:32:27.214Z,1.50
2022-09-26T12:36:11.699Z,1.38
2022-09-26T12:39:59.900Z,1.42
2022-09-26T12:43:11.231Z,1.55
2022-09-26T12:46:42.646Z,1.70
2022-09-26T12:50:02.408Z,1.65
2022-09-26T12:53:11.305Z,1.77
2022-09-26T12:57:13.535Z,1.85
2022-09-26T13:00:39.348Z,1.60
2022-09-26T13:04:46.282Z,1.92
2022-09-26T13:08:18.516Z,1.90
2022-09-26T13:11:36.729Z,1.80
2022-09-26T13:15:15.712Z,1.80
2022-09-26T14:02:53.777Z,1.80
2022-09-26T14:11:43.208Z,2.00
2022-09-26T14:24:55.280Z,1.60
2022-09-26T14:50:28.194Z,1.50
2022-09-26T14:54:54.239Z,1.48
2022-09-26T14:59:30.713Z,1.48
2022-09-26T15:03:52.824Z,1.40
2022-09-26T15:08:15.931Z,1.50
2022-09-26T15:37:02.630Z,1.35
2022-09-26T15:52:56.391Z,1.05
2022-09-26T15:57:18.350Z,1.30
2022-09-26T16:16:02.173Z,1.35
2022-09-26T16:20:41.964Z,1.27
2022-09-26T16:34:35.103Z,0.80
2022-09-26T16:38:35.932Z,1.05
2022-09-26T16:42:05.033Z,0.88
2022-09-26T16:51:51.416Z,0.90
2022-09-26T16:55:11.485Z,1.05
2022-09-26T16:58:48.221Z,1.38
2022-09-26T17:02:34.719Z,1.40
2022-09-26T17:05:32.979Z,1.23
2022-09-26T17:09:12.016Z,1.33
2022-09-26T17:12:23.839Z,1.40
2022-09-26T17:15:35.825Z,1.40
2022-09-26T17:18:45.063Z,1.33
2022-09-26T17:21:51.895Z,1.40
2022-09-26T17:25:04.056Z,1.30
2022-09-26T17:28:14.365Z,1.13
2022-09-26T17:31:30.923Z,1.33
2022-09-26T17:34:43.568Z,1.45
2022-09-26T17:37:47.994Z,1.23
2022-09-26T17:40:53.790Z,1.40
2022-09-26T17:44:11.289Z,1.33
2022-09-26T17:47:19.041Z,1.10
2022-09-26T17:50:39.653Z,1.30
2022-09-26T17:54:05.689Z,1.40
2022-09-26T17:57:18.931Z,1.20
2022-09-26T18:00:36.993Z,1.08
2022-09-26T18:03:55.698Z,1.20
2022-09-26T18:07:00.040Z,1.50
2022-09-26T18:10:23.854Z,1.40
2022-09-26T18:14:03.829Z,1.50
2022-09-26T18:20:44.473Z,0.98
2022-09-26T18:23:55.074Z,1.00
2022-09-26T18:27:11.210Z,1.10
2022-09-26T18:30:19.329Z,1.27
2022-09-26T18:33:55.186Z,1.20
2022-09-26T18:40:34.625Z,1.30
2022-09-26T18:44:18.074Z,1.23
2022-09-26T18:47:23.778Z,1.30
2022-09-26T18:50:51.522Z,0.98
2022-09-26T18:54:30.226Z,1.17
2022-09-26T18:57:54.978Z,1.20
2022-09-26T19:01:03.680Z,1.05
2022-09-26T19:07:33.023Z,1.08
2022-09-26T19:10:40.890Z,1.20
2022-09-26T19:13:48.119Z,1.30
2022-09-26T19:17:03.241Z,1.27
2022-09-26T19:20:35.693Z,1.30
2022-09-26T19:23:59.659Z,1.52
2022-09-26T19:27:55.260Z,1.33
2022-09-26T19:34:52.249Z,1.30
2022-09-26T19:38:30.709Z,1.33
2022-09-26T19:41:30.233Z,1.48
2022-09-26T19:45:10.945Z,1.52
2022-09-26T19:48:38.844Z,1.33
2022-09-26T19:52:22.387Z,1.30
2022-09-26T19:59:19.169Z,1.17
2022-09-26T20:11:32.328Z,1.10
2022-09-26T20:14:45.084Z,1.27
2022-09-26T20:17:55.684Z,1.05
2022-09-26T20:21:23.478Z,1.23
2022-09-26T20:24:41.372Z,1.35
2022-09-26T20:27:48.817Z,1.17
2022-09-26T20:31:10.289Z,1.35
2022-09-26T20:34:19.166Z,1.33
2022-09-26T20:38:31.842Z,1.42
2022-09-26T20:41:47.141Z,1.35
2022-09-26T20:45:07.912Z,1.10
2022-09-26T20:48:45.524Z,1.10
2022-09-26T21:04:20.716Z,1.58
2022-09-26T21:12:55.279Z,0.93
2022-09-26T21:16:36.151Z,1.35
2022-09-26T21:21:26.425Z,1.23
2022-09-26T21:25:47.843Z,0.93
2022-09-26T21:29:47.983Z,1.00
2022-09-26T21:33:14.125Z,1.20
2022-09-26T21:36:34.663Z,1.30
2022-09-26T21:39:42.305Z,1.23
2022-09-26T21:42:50.896Z,1.40
2022-09-26T21:46:11.141Z,1.40
2022-09-26T21:53:12.154Z,1.38
2022-09-26T21:56:18.823Z,1.13
2022-09-26T21:59:33.633Z,1.30
2022-09-26T22:02:51.172Z,1.25
2022-09-26T22:06:31.682Z,1.33
2022-09-26T22:09:43.081Z,1.20
2022-09-26T22:13:30.298Z,1.10
2022-09-26T22:16:42.497Z,1.17
2022-09-26T22:19:49.743Z,0.90
2022-09-26T22:23:14.017Z,1.42
2022-09-26T22:26:28.374Z,1.20
2022-09-26T22:29:38.942Z,1.02
2022-09-26T22:32:47.755Z,1.30
2022-09-26T22:35:59.589Z,1.10
2022-09-26T22:47:16.015Z,1.00
2022-09-26T22:50:35.021Z,1.00
2022-09-26T22:57:19.207Z,1.00
2022-09-26T23:00:26.144Z,1.10
2022-09-26T23:03:54.160Z,1.30
2022-09-26T23:07:08.288Z,0.98
2022-09-26T23:10:35.949Z,1.33
2022-09-26T23:13:46.841Z,1.23
2022-09-26T23:17:59.966Z,1.15
2022-09-26T23:25:36.219Z,1.27
2022-09-26T23:29:47.401Z,1.10
2022-09-26T23:38:52.367Z,1.20
2022-09-26T23:42:37.540Z,1.08
2022-09-26T23:46:26.649Z,1.20
2022-09-26T23:49:53.255Z,0.95
2022-09-26T23:54:09.422Z,0.80
